Time;durP1;ratioP1;P1;durP2;ratioP2;P2;SDS_P1;SDS_P2;PMS_P1;PMS_P2;Temp;Humidity;BMP_temperature;BMP_pressure;BME280_temperature;BME280_humidity;BME280_pressure;Samples;Min_cycle;Max_cycle;Signal;HPM_P1;HPM_P2
2023/01/04 00:01:30;;;;;;;13.20;7.30;;;;;;;7.87;84.10;101828.38;5052505;28;20224;-63
2023/01/04 00:03:57;;;;;;;13.83;7.70;;;;;;;7.82;84.70;101821.69;5053112;28;20648;-60
2023/01/04 00:06:33;;;;;;;15.53;7.23;;;;;;;7.90;84.18;101825.56;5052016;28;20236;-61
2023/01/04 00:09:04;;;;;;;14.63;7.83;;;;;;;7.93;83.83;101822.69;5054592;28;20222;-62
2023/01/04 00:11:37;;;;;;;13.67;7.23;;;;;;;7.89;83.87;101820.34;5053889;28;20202;-62
2023/01/04 00:14:06;;;;;;;12.80;7.53;;;;;;;7.92;83.68;101818.34;5057097;28;20363;-62
2023/01/04 00:16:35;;;;;;;18.20;8.47;;;;;;;7.81;84.47;101815.56;5054662;28;20210;-62
2023/01/04 00:19:02;;;;;;;15.33;7.80;;;;;;;7.79;84.62;101825.38;5058064;28;20202;-61
2023/01/04 00:21:31;;;;;;;14.77;9.13;;;;;;;7.70;85.32;101820.69;5057034;28;20221;-61
2023/01/04 00:24:01;;;;;;;13.83;8.10;;;;;;;7.70;85.33;101812.75;5056269;28;20202;-62
2023/01/04 00:26:31;;;;;;;16.47;8.53;;;;;;;7.62;85.93;101815.03;5057889;28;20245;-62
2023/01/04 00:29:01;;;;;;;16.37;8.27;;;;;;;7.68;85.39;101813.78;5055750;28;20331;-61
2023/01/04 00:31:30;;;;;;;17.87;8.10;;;;;;;7.67;85.65;101812.09;5055526;28;20236;-63
2023/01/04 00:34:00;;;;;;;18.23;8.87;;;;;;;7.64;85.54;101812.31;5054975;28;20217;-61
2023/01/04 00:36:28;;;;;;;15.77;8.30;;;;;;;7.58;85.98;101802.97;5054688;28;20648;-62
2023/01/04 00:39:08;;;;;;;14.33;8.73;;;;;;;7.61;85.99;101797.50;5054141;28;20242;-62
2023/01/04 00:41:37;;;;;;;19.00;9.50;;;;;;;7.60;85.58;101784.38;5057404;28;20275;-63
2023/01/04 00:44:25;;;;;;;15.17;7.87;;;;;;;7.63;85.45;101779.78;5053839;28;20209;-62
2023/01/04 00:46:54;;;;;;;21.27;8.87;;;;;;;7.58;85.21;101795.03;5054460;28;20217;-61
2023/01/04 00:49:22;;;;;;;20.40;8.80;;;;;;;7.56;85.68;101784.56;5057112;28;20234;-63
2023/01/04 00:51:50;;;;;;;15.37;8.40;;;;;;;7.56;85.31;101794.31;5055832;28;20212;-60
2023/01/04 00:54:18;;;;;;;15.70;8.07;;;;;;;7.49;85.67;101782.41;5055845;28;20213;-61
2023/01/04 00:56:46;;;;;;;15.30;8.17;;;;;;;7.48;85.74;101776.28;5058934;28;20214;-61
2023/01/04 00:59:16;;;;;;;14.43;8.67;;;;;;;7.42;86.05;101779.31;5057611;28;20316;-62
2023/01/04 01:01:45;;;;;;;20.60;8.63;;;;;;;7.36;86.55;101774.44;5059453;28;20345;-62
2023/01/04 01:04:16;;;;;;;13.70;8.63;;;;;;;7.33;86.71;101763.22;5058310;28;20210;-62
2023/01/04 01:06:44;;;;;;;15.40;8.67;;;;;;;7.33;87.33;101776.41;5056382;28;20204;-59
2023/01/04 01:09:12;;;;;;;17.70;8.57;;;;;;;7.36;87.23;101770.94;5057727;28;20674;-62
2023/01/04 01:11:40;;;;;;;15.13;7.83;;;;;;;7.46;86.43;101774.72;5063163;28;20212;-61
2023/01/04 01:14:13;;;;;;;13.50;7.63;;;;;;;7.51;86.09;101772.63;5058407;28;20712;-60
2023/01/04 01:16:41;;;;;;;14.50;7.73;;;;;;;7.48;86.31;101764.88;5057088;28;20220;-61
2023/01/04 01:19:24;;;;;;;13.63;8.57;;;;;;;7.51;86.23;101769.97;5051818;28;20292;-63
2023/01/04 01:21:52;;;;;;;16.00;9.37;;;;;;;7.50;86.81;101765.63;5057659;28;20580;-63
2023/01/04 01:24:20;;;;;;;17.90;9.57;;;;;;;7.44;87.76;101758.13;5058509;28;20219;-62
2023/01/04 01:26:48;;;;;;;18.33;10.07;;;;;;;7.53;87.98;101757.53;5057779;28;20287;-62
2023/01/04 01:29:15;;;;;;;19.33;10.20;;;;;;;7.59;87.77;101762.41;5060581;28;20338;-62
2023/01/04 01:31:43;;;;;;;18.47;10.37;;;;;;;7.59;88.13;101761.56;5062322;28;20209;-62
2023/01/04 01:34:11;;;;;;;21.50;10.33;;;;;;;7.64;88.03;101765.63;5055358;28;20209;-61
2023/01/04 01:36:40;;;;;;;19.33;11.07;;;;;;;7.73;87.86;101761.56;5057281;28;20220;-60
2023/01/04 01:39:08;;;;;;;18.97;10.53;;;;;;;7.81;87.05;101756.63;5060471;28;20202;-60
2023/01/04 01:41:36;;;;;;;18.10;9.83;;;;;;;7.87;86.20;101754.41;5056574;28;20210;-60
2023/01/04 01:44:06;;;;;;;19.67;11.07;;;;;;;7.85;85.94;101758.09;5056486;28;20206;-62
2023/01/04 01:46:38;;;;;;;20.03;9.63;;;;;;;8.03;85.40;101756.06;5055798;28;20218;-63
2023/01/04 01:49:14;;;;;;;17.10;10.60;;;;;;;8.06;84.46;101732.94;5054956;28;20256;-60
2023/01/04 01:51:44;;;;;;;18.17;10.00;;;;;;;8.15;83.88;101739.41;5054675;28;20800;-59
2023/01/04 01:54:17;;;;;;;14.87;9.83;;;;;;;8.16;83.03;101725.25;5048505;28;20219;-62
2023/01/04 01:56:47;;;;;;;14.93;10.10;;;;;;;8.02;82.92;101720.00;5057358;28;20650;-60
2023/01/04 01:59:16;;;;;;;17.10;9.77;;;;;;;7.87;83.43;101722.72;5054460;28;20262;-63
2023/01/04 02:01:44;;;;;;;19.73;10.23;;;;;;;7.86;84.15;101725.47;5052217;28;20211;-62
2023/01/04 02:04:15;;;;;;;17.43;9.93;;;;;;;8.07;83.68;101715.28;5055242;28;20211;-63
2023/01/04 02:06:49;;;;;;;17.13;10.17;;;;;;;8.24;82.19;101722.94;5057511;28;20402;-62
2023/01/04 02:09:17;;;;;;;20.40;11.43;;;;;;;8.28;81.67;101714.69;5058007;28;20664;-62
2023/01/04 02:11:45;;;;;;;16.13;9.97;;;;;;;8.27;81.39;101712.13;5059871;28;20656;-63
2023/01/04 02:14:26;;;;;;;17.67;10.63;;;;;;;8.24;81.24;101712.38;5058843;28;20710;-63
2023/01/04 02:17:05;;;;;;;16.93;10.10;;;;;;;8.14;81.70;101704.22;5058871;28;20784;-61
2023/01/04 02:20:05;;;;;;;18.33;10.50;;;;;;;8.19;82.25;101709.16;5055266;28;20207;-62
2023/01/04 02:22:58;;;;;;;15.30;9.93;;;;;;;8.22;81.50;101695.75;5055763;28;20214;-60
2023/01/04 02:26:02;;;;;;;21.63;9.60;;;;;;;8.06;82.18;101698.59;5055745;28;20245;-62
2023/01/04 02:28:47;;;;;;;21.47;11.20;;;;;;;7.96;83.02;101686.09;5050918;28;20207;-60
2023/01/04 02:31:29;;;;;;;20.93;11.10;;;;;;;7.95;83.60;101685.25;5059169;28;20241;-60
2023/01/04 02:34:05;;;;;;;20.13;11.33;;;;;;;7.84;84.38;101693.88;5047880;28;20345;-62
2023/01/04 02:36:40;;;;;;;21.13;11.47;;;;;;;7.81;84.89;101709.94;5053791;28;20566;-61
2023/01/04 02:39:18;;;;;;;17.80;12.03;;;;;;;7.85;84.72;101698.22;5056627;28;20212;-62
2023/01/04 02:41:50;;;;;;;16.90;10.73;;;;;;;7.86;84.74;101693.78;5055474;28;21462;-62
2023/01/04 02:47:12;;;;;;;19.10;12.17;;;;;;;7.67;86.08;101690.63;5051492;28;20219;-63
2023/01/04 02:52:31;;;;;;;17.93;11.93;;;;;;;7.73;85.58;101675.25;5052591;28;20318;-61
2023/01/04 02:55:06;;;;;;;22.30;11.73;;;;;;;7.78;85.68;101670.50;5052849;28;20219;-62
2023/01/04 02:57:45;;;;;;;19.17;11.40;;;;;;;7.71;85.80;101666.59;5054664;28;21051;-62
2023/01/04 03:00:29;;;;;;;19.63;11.13;;;;;;;7.70;85.96;101666.69;5054653;28;20216;-62
2023/01/04 03:06:17;;;;;;;18.00;10.43;;;;;;;7.86;84.43;101651.53;5054036;28;20217;-61
2023/01/04 03:08:57;;;;;;;19.90;10.73;;;;;;;7.80;84.77;101650.16;5054077;28;20214;-60
2023/01/04 03:14:22;;;;;;;16.60;9.17;;;;;;;7.69;85.27;101634.16;5049283;28;20220;-62
2023/01/04 03:17:02;;;;;;;16.93;9.60;;;;;;;7.67;85.90;101630.75;5050595;28;20231;-61
2023/01/04 03:36:48;;;;;;;14.87;7.60;;;;;;;7.97;83.06;101616.47;5052122;28;20205;-60
2023/01/04 03:50:58;;;;;;;10.53;5.60;;;;;;;7.94;82.35;101599.88;5054996;28;20329;-61
2023/01/04 03:53:29;;;;;;;8.77;5.13;;;;;;;7.99;81.59;101596.94;5054192;28;20694;-62
2023/01/04 03:55:58;;;;;;;12.90;5.63;;;;;;;7.98;81.33;101597.03;5054670;28;20208;-63
2023/01/04 03:58:27;;;;;;;9.77;5.20;;;;;;;7.91;81.08;101600.09;5058047;28;20209;-61
2023/01/04 04:01:02;;;;;;;8.37;5.17;;;;;;;7.98;80.66;101591.75;5058034;28;20309;-60
2023/01/04 04:09:04;;;;;;;10.57;5.03;;;;;;;8.01;79.83;101589.72;5054443;28;20228;-62
2023/01/04 04:11:32;;;;;;;8.90;5.17;;;;;;;7.97;80.08;101588.25;5055757;28;20705;-61
2023/01/04 04:14:00;;;;;;;13.07;5.10;;;;;;;8.02;79.82;101590.56;5055458;28;20953;-62
2023/01/04 04:16:28;;;;;;;9.23;5.00;;;;;;;7.98;79.96;101584.66;5057817;28;20214;-60
2023/01/04 04:18:56;;;;;;;7.93;4.80;;;;;;;8.04;80.00;101588.69;5055932;28;20309;-61
2023/01/04 04:21:27;;;;;;;9.60;5.13;;;;;;;7.95;80.54;101584.88;5059405;28;20201;-60
2023/01/04 04:23:55;;;;;;;13.37;6.20;;;;;;;7.90;80.86;101572.00;5062252;28;20221;-60
2023/01/04 04:26:24;;;;;;;10.43;5.67;;;;;;;7.86;81.19;101557.28;5051278;28;20728;-61
2023/01/04 04:28:52;;;;;;;10.53;5.70;;;;;;;7.92;81.18;101563.94;5061955;28;20265;-61
2023/01/04 04:31:20;;;;;;;10.77;5.83;;;;;;;7.84;81.41;101561.81;5062430;28;20972;-60
2023/01/04 04:33:47;;;;;;;9.87;5.70;;;;;;;7.81;82.06;101577.06;5058746;28;20705;-60
2023/01/04 04:36:15;;;;;;;10.90;5.97;;;;;;;7.82;82.04;101563.75;5060986;28;20223;-59
2023/01/04 04:38:43;;;;;;;9.43;5.30;;;;;;;7.82;81.58;101563.75;5059436;28;20206;-63
2023/01/04 04:44:00;;;;;;;10.27;5.27;;;;;;;7.87;81.49;101550.22;5059806;28;20224;-62
2023/01/04 04:46:27;;;;;;;10.03;5.90;;;;;;;7.82;81.51;101558.47;5063263;28;20277;-60
2023/01/04 04:48:55;;;;;;;9.20;5.97;;;;;;;7.74;81.41;101560.75;5066071;28;20596;-61
2023/01/04 04:51:23;;;;;;;9.70;6.20;;;;;;;7.70;81.66;101554.00;5063053;28;20232;-62
2023/01/04 04:53:51;;;;;;;11.40;5.63;;;;;;;7.54;82.58;101553.34;5063138;28;20210;-62
2023/01/04 04:56:19;;;;;;;10.13;6.27;;;;;;;7.59;82.02;101545.94;5059541;28;20213;-62
2023/01/04 04:58:47;;;;;;;9.83;6.10;;;;;;;7.52;82.58;101550.81;5060748;28;20310;-60
2023/01/04 05:01:16;;;;;;;9.20;5.43;;;;;;;7.61;82.19;101559.91;5061684;28;20201;-61
2023/01/04 05:03:44;;;;;;;9.90;5.83;;;;;;;7.66;81.90;101555.13;5065631;28;20233;-62
2023/01/04 05:06:12;;;;;;;8.87;5.70;;;;;;;7.71;81.89;101560.13;5061277;28;20580;-61
2023/01/04 05:08:39;;;;;;;9.57;5.33;;;;;;;7.67;81.64;101548.06;5063814;28;21741;-60
2023/01/04 05:11:09;;;;;;;10.77;6.43;;;;;;;7.66;81.13;101549.00;5064462;28;20885;-60
2023/01/04 05:13:36;;;;;;;13.43;6.37;;;;;;;7.58;81.34;101538.97;5062259;28;20247;-63
2023/01/04 05:16:05;;;;;;;12.10;6.43;;;;;;;7.51;81.62;101542.97;5062488;28;20221;-62
2023/01/04 05:18:35;;;;;;;13.03;6.13;;;;;;;7.37;82.07;101536.00;5061186;28;20206;-62
2023/01/04 05:21:03;;;;;;;12.00;6.77;;;;;;;7.39;81.92;101534.06;5062652;28;20200;-60
2023/01/04 05:23:31;;;;;;;12.50;7.37;;;;;;;7.37;81.92;101536.00;5063115;28;20262;-62
2023/01/04 05:26:00;;;;;;;10.40;6.70;;;;;;;7.39;82.12;101535.88;5060736;28;20245;-62
2023/01/04 05:28:28;;;;;;;11.50;6.47;;;;;;;7.31;82.28;101535.53;5064922;28;20204;-61
2023/01/04 05:30:56;;;;;;;12.17;6.53;;;;;;;7.21;83.29;101531.81;5060013;28;20200;-62
2023/01/04 05:33:25;;;;;;;11.10;6.20;;;;;;;7.20;83.49;101522.22;5058521;28;20340;-63
2023/01/04 05:35:55;;;;;;;11.70;6.23;;;;;;;7.28;83.26;101520.78;5058250;28;20221;-61
2023/01/04 05:38:24;;;;;;;10.43;5.50;;;;;;;7.29;83.95;101524.25;5058833;28;20212;-63
2023/01/04 05:40:52;;;;;;;12.27;6.33;;;;;;;7.38;83.39;101523.66;5056542;28;20209;-62
2023/01/04 05:43:22;;;;;;;11.63;6.37;;;;;;;7.36;83.67;101507.06;5056635;28;20223;-61
2023/01/04 05:45:51;;;;;;;12.37;6.80;;;;;;;7.39;83.64;101498.91;5054096;28;21142;-61
2023/01/04 05:48:20;;;;;;;10.83;6.37;;;;;;;7.42;83.90;101496.09;5057231;28;20206;-63
2023/01/04 05:50:48;;;;;;;12.23;6.57;;;;;;;7.31;84.53;101488.03;5057429;28;20198;-61
2023/01/04 05:53:17;;;;;;;12.87;6.70;;;;;;;7.32;85.30;101489.72;5055616;28;20225;-61
2023/01/04 05:55:45;;;;;;;13.73;7.17;;;;;;;7.39;85.27;101480.44;5054915;28;20209;-60
2023/01/04 05:58:13;;;;;;;13.10;6.87;;;;;;;7.36;85.66;101486.81;5055056;28;20217;-60
2023/01/04 06:00:41;;;;;;;13.03;7.73;;;;;;;7.41;85.60;101487.31;5058082;28;20209;-62
2023/01/04 06:03:08;;;;;;;14.67;8.20;;;;;;;7.45;85.86;101480.06;5058501;28;20211;-61
2023/01/04 06:05:36;;;;;;;14.80;7.47;;;;;;;7.50;85.44;101483.22;5054062;28;20309;-62
2023/01/04 06:08:05;;;;;;;14.40;7.40;;;;;;;7.50;85.72;101483.22;5052228;28;20568;-62
2023/01/04 06:10:34;;;;;;;15.83;7.13;;;;;;;7.53;85.49;101477.75;5059076;28;20243;-61
2023/01/04 06:13:01;;;;;;;16.53;7.90;;;;;;;7.53;85.48;101477.75;5055700;28;20703;-61
2023/01/04 06:15:29;;;;;;;13.23;7.23;;;;;;;7.56;85.77;101472.25;5056270;28;20228;-62
2023/01/04 06:17:57;;;;;;;14.20;7.47;;;;;;;7.65;85.09;101476.88;5059266;28;20205;-61
2023/01/04 06:20:24;;;;;;;13.13;7.13;;;;;;;7.66;84.82;101478.56;5059670;28;20209;-61
2023/01/04 06:22:52;;;;;;;13.87;7.20;;;;;;;7.70;84.67;101476.59;5056217;28;20213;-60
2023/01/04 06:25:20;;;;;;;13.67;6.70;;;;;;;7.68;84.96;101481.97;5053665;28;20249;-61
2023/01/04 06:27:49;;;;;;;11.77;7.07;;;;;;;7.74;84.51;101486.81;5055831;28;20643;-62
2023/01/04 06:30:17;;;;;;;13.23;6.70;;;;;;;7.83;84.14;101494.09;5057422;28;20540;-60
2023/01/04 06:32:44;;;;;;;14.10;6.40;;;;;;;7.88;83.43;101493.81;5055341;28;20225;-60
2023/01/04 06:35:12;;;;;;;14.97;6.70;;;;;;;7.89;83.45;101500.78;5052809;28;20301;-63
2023/01/04 06:37:40;;;;;;;10.73;5.80;;;;;;;7.92;83.10;101484.69;5053490;28;20211;-61
2023/01/04 06:40:09;;;;;;;15.00;7.03;;;;;;;7.84;83.74;101477.31;5051938;28;20208;-60
2023/01/04 06:42:46;;;;;;;10.90;5.97;;;;;;;7.96;82.84;101488.84;5052533;28;20275;-61
2023/01/04 06:45:15;;;;;;;13.40;6.63;;;;;;;7.97;82.86;101473.84;5052013;28;20263;-63
2023/01/04 06:47:43;;;;;;;12.33;6.63;;;;;;;8.02;82.86;101466.41;5053288;28;20252;-61
2023/01/04 06:50:12;;;;;;;12.67;6.60;;;;;;;8.01;83.09;101460.28;5055350;28;20210;-63
2023/01/04 06:52:39;;;;;;;12.47;6.80;;;;;;;8.01;82.84;101448.88;5059397;28;20230;-62
2023/01/04 06:55:09;;;;;;;12.73;6.53;;;;;;;7.98;83.03;101438.56;5062069;28;20641;-62
2023/01/04 06:57:36;;;;;;;12.13;7.00;;;;;;;7.94;83.62;101428.19;5060492;28;20209;-61
2023/01/04 07:00:06;;;;;;;15.20;6.57;;;;;;;7.88;83.80;101423.34;5056997;28;20233;-63
2023/01/04 07:02:35;;;;;;;12.60;6.37;;;;;;;7.86;84.21;101406.75;5050715;28;20211;-62
2023/01/04 07:05:04;;;;;;;15.40;7.40;;;;;;;7.88;84.31;101423.34;5053035;28;20212;-62
2023/01/04 07:07:32;;;;;;;13.47;6.73;;;;;;;7.85;84.49;101446.47;5058622;28;20209;-62
2023/01/04 07:10:00;;;;;;;12.03;5.93;;;;;;;7.90;84.57;101439.09;5055232;28;20294;-62
2023/01/04 07:12:36;;;;;;;11.07;6.10;;;;;;;8.01;83.97;101451.53;5057791;28;20256;-61
2023/01/04 07:15:05;;;;;;;10.27;6.20;;;;;;;7.97;84.10;101458.00;5056879;28;20206;-61
2023/01/04 07:17:54;;;;;;;10.90;6.17;;;;;;;8.11;83.43;101457.84;5058610;28;20210;-62
2023/01/04 07:20:22;;;;;;;11.20;6.10;;;;;;;8.14;83.25;101447.94;5057536;28;21037;-62
2023/01/04 07:22:50;;;;;;;11.73;6.17;;;;;;;8.10;83.34;101453.50;5057216;28;20202;-62
2023/01/04 07:25:17;;;;;;;11.10;6.27;;;;;;;8.13;83.58;101455.94;5058428;28;20287;-61
2023/01/04 07:27:50;;;;;;;13.70;5.97;;;;;;;8.09;83.63;101438.66;5057124;28;20294;-63
2023/01/04 07:30:17;;;;;;;11.00;5.77;;;;;;;8.12;83.81;101435.75;5059814;28;20221;-63
2023/01/04 07:32:45;;;;;;;9.97;5.20;;;;;;;8.09;84.07;101425.44;5055281;28;20238;-62
2023/01/04 07:35:15;;;;;;;10.17;5.17;;;;;;;8.10;84.02;101420.03;5057727;28;20224;-62
2023/01/04 07:37:43;;;;;;;8.87;4.60;;;;;;;8.16;83.92;101409.03;5057842;28;20210;-63
2023/01/04 07:40:11;;;;;;;8.13;4.43;;;;;;;8.21;83.58;101406.91;5057155;28;20234;-62
2023/01/04 07:42:39;;;;;;;9.13;4.43;;;;;;;8.21;83.49;101398.97;5053346;28;20211;-63
2023/01/04 07:45:08;;;;;;;10.03;4.50;;;;;;;8.33;83.03;101397.28;5057036;28;20776;-64
2023/01/04 07:47:35;;;;;;;9.73;4.80;;;;;;;8.32;82.93;101385.03;5057171;28;20222;-62
2023/01/04 07:50:04;;;;;;;10.83;4.80;;;;;;;8.43;82.39;101373.66;5057629;28;20307;-63
2023/01/04 07:52:33;;;;;;;11.27;4.87;;;;;;;8.47;82.15;101372.47;5059383;28;20237;-62
2023/01/04 07:55:01;;;;;;;9.35;4.93;;;;;;;8.50;82.73;101378.38;5056476;28;20445;-60
2023/01/04 07:57:29;;;;;;;10.77;4.03;;;;;;;8.49;82.68;101375.84;5052777;28;20219;-60
2023/01/04 07:59:57;;;;;;;8.17;4.17;;;;;;;8.52;82.85;101367.72;5055398;28;20264;-60
2023/01/04 08:02:25;;;;;;;7.40;3.73;;;;;;;8.55;83.10;101381.53;5055882;28;20215;-58
2023/01/04 08:04:52;;;;;;;7.53;3.23;;;;;;;8.56;83.35;101400.88;5055709;28;20200;-59
2023/01/04 08:07:20;;;;;;;7.87;3.90;;;;;;;8.59;83.68;101401.50;5057190;28;20218;-60
2023/01/04 08:09:49;;;;;;;7.63;3.53;;;;;;;8.64;83.78;101385.28;5060317;28;20327;-57
2023/01/04 08:12:17;;;;;;;7.07;3.57;;;;;;;8.71;83.79;101398.91;5060424;28;20219;-59
2023/01/04 08:14:45;;;;;;;7.50;3.13;;;;;;;8.79;83.30;101401.84;5058097;28;20688;-60
2023/01/04 08:17:12;;;;;;;11.73;3.40;;;;;;;8.89;84.37;101408.09;5055021;28;20303;-62
2023/01/04 08:19:40;;;;;;;7.87;3.40;;;;;;;8.90;84.77;101409.78;5058628;28;20220;-60
2023/01/04 08:22:08;;;;;;;11.43;4.20;;;;;;;8.98;83.92;101412.72;5053876;28;20573;-59
2023/01/04 08:24:36;;;;;;;8.93;3.73;;;;;;;8.97;83.16;101409.22;5058079;28;20200;-60
2023/01/04 08:27:05;;;;;;;6.97;3.60;;;;;;;8.89;83.56;101418.69;5037105;28;20240;-59
2023/01/04 08:29:33;;;;;;;7.07;3.30;;;;;;;8.85;83.93;101412.81;5042334;28;20211;-59
2023/01/04 08:32:02;;;;;;;9.83;3.70;;;;;;;8.84;83.79;101408.47;5034919;28;20218;-63
2023/01/04 08:34:36;;;;;;;8.47;4.50;;;;;;;8.89;83.97;101405.47;5040859;28;20235;-59
2023/01/04 08:37:03;;;;;;;6.87;3.87;;;;;;;8.93;83.70;101410.44;5039561;28;21262;-61
2023/01/04 08:39:34;;;;;;;8.13;3.57;;;;;;;8.86;84.28;101418.94;5039199;28;20207;-65
2023/01/04 08:42:02;;;;;;;7.33;3.97;;;;;;;8.84;84.59;101416.41;5039797;28;20302;-63
2023/01/04 08:44:50;;;;;;;6.90;3.63;;;;;;;8.91;84.46;101407.03;5030391;28;20250;-64
2023/01/04 08:47:25;;;;;;;6.03;3.33;;;;;;;8.96;84.03;101404.06;5032710;28;20226;-64
2023/01/04 08:49:53;;;;;;;9.27;3.70;;;;;;;8.91;84.77;101408.84;5040021;28;20226;-62
2023/01/04 08:52:20;;;;;;;9.23;3.30;;;;;;;8.87;84.80;101410.88;5038126;28;20201;-64
2023/01/04 08:54:49;;;;;;;8.23;3.87;;;;;;;8.88;84.89;101406.44;5039559;28;20224;-63
2023/01/04 08:57:16;;;;;;;8.17;4.07;;;;;;;8.86;85.02;101400.41;5039361;28;20683;-59
2023/01/04 08:59:44;;;;;;;8.60;4.13;;;;;;;8.87;85.25;101402.13;5035476;28;20695;-60
2023/01/04 09:02:21;;;;;;;8.70;4.23;;;;;;;8.86;85.45;101409.19;5039333;28;20662;-61
2023/01/04 09:04:49;;;;;;;7.50;3.70;;;;;;;8.88;85.42;101407.25;5038098;28;20307;-59
2023/01/04 09:07:17;;;;;;;10.60;4.80;;;;;;;8.92;85.21;101398.16;5039936;28;20296;-59
2023/01/04 09:09:45;;;;;;;9.40;3.63;;;;;;;8.90;85.21;101397.41;5042163;28;20212;-60
2023/01/04 09:12:13;;;;;;;8.17;4.03;;;;;;;8.88;85.74;101398.50;5037098;28;20219;-61
2023/01/04 09:14:41;;;;;;;7.57;3.97;;;;;;;8.88;86.09;101390.56;5044271;28;20230;-60
2023/01/04 09:17:08;;;;;;;8.90;3.83;;;;;;;8.84;86.37;101382.00;5046088;28;20262;-61
2023/01/04 09:19:37;;;;;;;7.37;3.33;;;;;;;8.83;86.66;101382.13;5044306;28;20219;-60
2023/01/04 09:22:05;;;;;;;9.03;3.77;;;;;;;8.83;87.12;101382.13;5042857;28;20660;-62
2023/01/04 09:24:33;;;;;;;6.27;3.27;;;;;;;8.90;86.68;101386.00;5043210;28;20291;-62
2023/01/04 09:27:03;;;;;;;5.63;3.10;;;;;;;8.97;86.74;101389.88;5044566;28;20240;-61
2023/01/04 09:29:31;;;;;;;5.23;3.00;;;;;;;9.02;86.41;101387.72;5044300;28;20211;-61
2023/01/04 09:31:59;;;;;;;6.80;2.83;;;;;;;9.05;85.90;101403.38;5041626;28;20320;-62
2023/01/04 09:34:27;;;;;;;5.80;2.97;;;;;;;9.10;85.74;101384.50;5043669;28;20236;-62
2023/01/04 09:36:56;;;;;;;4.50;2.70;;;;;;;9.07;85.87;101390.84;5043939;28;20298;-62
2023/01/04 09:39:25;;;;;;;5.10;2.67;;;;;;;9.04;86.42;101372.59;5045793;28;20201;-60
2023/01/04 09:42:21;;;;;;;6.40;3.30;;;;;;;9.08;85.94;101381.97;5041532;28;20196;-62
2023/01/04 09:44:52;;;;;;;5.57;2.60;;;;;;;9.10;85.78;101374.75;5039603;28;20239;-61
2023/01/04 09:47:45;;;;;;;4.23;2.30;;;;;;;9.17;85.65;101383.06;5042626;28;20235;-62
2023/01/04 09:50:16;;;;;;;5.00;2.60;;;;;;;9.18;85.43;101392.69;5038427;28;20752;-62
2023/01/04 09:52:56;;;;;;;6.17;2.23;;;;;;;9.16;85.83;101384.88;5038576;28;20311;-63
2023/01/04 09:55:27;;;;;;;7.60;3.13;;;;;;;9.21;85.78;101385.38;5041193;28;20224;-62
2023/01/04 09:58:17;;;;;;;6.37;2.80;;;;;;;9.31;85.33;101381.06;5042108;28;20759;-62
2023/01/04 10:00:48;;;;;;;10.43;3.03;;;;;;;9.37;84.82;101388.53;5033944;28;20208;-63
2023/01/04 10:03:22;;;;;;;6.03;2.50;;;;;;;9.39;84.55;101376.03;5038616;28;20220;-59
2023/01/04 10:05:52;;;;;;;6.17;2.90;;;;;;;9.32;84.70;101374.78;5036355;28;20211;-60
2023/01/04 10:08:23;;;;;;;9.33;3.20;;;;;;;9.31;84.91;101375.78;5041568;28;20613;-59
2023/01/04 10:11:04;;;;;;;6.97;3.37;;;;;;;9.28;85.12;101365.41;5039014;28;20335;-59
2023/01/04 10:13:51;;;;;;;7.07;3.13;;;;;;;9.29;85.33;101369.75;5041854;28;20308;-60
2023/01/04 10:16:31;;;;;;;8.97;3.23;;;;;;;9.39;85.00;101364.59;5039749;28;20211;-59
2023/01/04 10:19:30;;;;;;;7.00;2.93;;;;;;;9.34;85.55;101361.44;5040910;28;20556;-59
2023/01/04 10:22:22;;;;;;;5.43;2.53;;;;;;;9.33;86.28;101365.03;5038016;28;20248;-60
2023/01/04 10:25:00;;;;;;;6.67;1.60;;;;;;;9.46;86.21;101354.34;5036291;28;20235;-61
2023/01/04 10:27:38;;;;;;;4.10;1.70;;;;;;;9.50;86.19;101351.34;5061431;28;20210;-61
2023/01/04 10:30:29;;;;;;;4.07;1.70;;;;;;;9.58;86.45;101351.59;5061556;28;20208;-62
2023/01/04 10:33:10;;;;;;;3.40;1.30;;;;;;;9.67;86.16;101352.69;5061149;28;20224;-60
2023/01/04 10:35:39;;;;;;;6.77;1.80;;;;;;;9.75;85.84;101344.97;5063045;28;20227;-61
2023/01/04 10:38:15;;;;;;;5.07;1.80;;;;;;;9.82;85.56;101347.00;5062937;28;20247;-59
2023/01/04 10:40:47;;;;;;;6.67;1.90;;;;;;;9.92;85.20;101352.44;5065623;28;20316;-63
2023/01/04 10:43:25;;;;;;;6.00;1.53;;;;;;;10.02;84.46;101348.06;5063960;28;21102;-61
2023/01/04 10:45:59;;;;;;;5.90;1.57;;;;;;;10.08;83.95;101342.28;5063225;28;20566;-61
2023/01/04 10:48:37;;;;;;;4.17;1.37;;;;;;;10.14;83.84;101343.56;5064817;28;20233;-61
2023/01/04 10:51:06;;;;;;;3.67;1.40;;;;;;;10.13;83.91;101340.09;5058986;28;20228;-61
2023/01/04 10:53:43;;;;;;;4.13;1.30;;;;;;;10.18;83.99;101343.25;5061133;28;20212;-60
2023/01/04 10:56:20;;;;;;;2.97;1.37;;;;;;;10.33;82.74;101338.50;5062407;28;20211;-60
2023/01/04 10:58:58;;;;;;;3.03;1.17;;;;;;;10.42;82.50;101339.56;5065798;28;20532;-60
2023/01/04 11:01:31;;;;;;;8.00;1.57;;;;;;;10.38;82.66;101324.88;5062279;28;20689;-60
2023/01/04 11:04:05;;;;;;;7.60;2.00;;;;;;;10.46;82.26;101322.44;5062764;28;20240;-61
2023/01/04 11:06:40;;;;;;;2.23;1.17;;;;;;;10.49;81.97;101315.06;5059841;28;20559;-61
2023/01/04 11:09:15;;;;;;;3.73;1.50;;;;;;;10.54;81.39;101318.19;5059000;28;20226;-61
2023/01/04 11:11:55;;;;;;;3.77;1.50;;;;;;;10.58;81.32;101313.44;5062610;28;20839;-62
2023/01/04 11:14:24;;;;;;;2.47;1.27;;;;;;;10.64;81.45;101309.47;5061210;28;20214;-61
2023/01/04 11:16:58;;;;;;;3.53;1.33;;;;;;;10.66;80.88;101304.84;5063049;28;20205;-62
2023/01/04 11:19:27;;;;;;;4.07;1.40;;;;;;;10.69;81.05;101316.06;5057542;28;20212;-63
2023/01/04 11:21:59;;;;;;;5.60;1.60;;;;;;;10.74;80.25;101316.50;5059298;28;20235;-61
2023/01/04 11:24:30;;;;;;;2.73;1.30;;;;;;;10.81;80.23;101303.59;5054493;28;20203;-61
2023/01/04 11:27:06;;;;;;;3.17;1.40;;;;;;;10.81;80.22;101301.78;5055998;28;20287;-59
2023/01/04 11:29:40;;;;;;;2.40;1.00;;;;;;;10.85;80.16;101300.53;5061703;28;20266;-60
2023/01/04 11:32:17;;;;;;;5.07;1.23;;;;;;;10.91;80.22;101284.06;5056648;28;20239;-61
2023/01/04 11:34:51;;;;;;;3.20;1.10;;;;;;;10.88;80.63;101287.00;5054588;28;20849;-61
2023/01/04 11:37:41;;;;;;;3.57;1.63;;;;;;;10.92;80.47;101285.75;5059036;28;20332;-60
2023/01/04 11:40:24;;;;;;;2.20;1.00;;;;;;;10.96;80.22;101285.50;5051464;28;20214;-60
2023/01/04 11:43:12;;;;;;;5.10;1.33;;;;;;;11.03;79.99;101291.97;5052790;28;20296;-62
2023/01/04 11:45:39;;;;;;;4.90;1.50;;;;;;;11.02;79.80;101296.44;5053252;28;20341;-62
2023/01/04 11:48:15;;;;;;;3.10;1.33;;;;;;;11.02;79.49;101290.28;5064153;28;21010;-62
2023/01/04 11:50:46;;;;;;;4.67;1.20;;;;;;;11.02;79.95;101279.66;5057188;28;20195;-62
2023/01/04 11:53:25;;;;;;;2.30;1.00;;;;;;;11.06;79.96;101270.50;5059390;28;20211;-62
2023/01/04 11:56:09;;;;;;;2.23;1.10;;;;;;;11.08;79.83;101273.84;5058955;28;20227;-63
2023/01/04 11:58:39;;;;;;;3.87;1.10;;;;;;;11.13;79.77;101255.72;5059548;28;20716;-60
2023/01/04 12:01:20;;;;;;;3.37;1.10;;;;;;;11.16;79.74;101250.16;5059341;28;20204;-62
2023/01/04 12:03:48;;;;;;;4.10;1.20;;;;;;;11.16;79.87;101261.59;5060143;28;20305;-62
2023/01/04 12:06:20;;;;;;;2.70;1.00;;;;;;;11.21;79.30;101232.81;5057307;28;20214;-63
2023/01/04 12:08:48;;;;;;;2.27;0.97;;;;;;;11.26;79.15;101240.38;5055093;28;20218;-62
2023/01/04 12:11:23;;;;;;;2.07;0.90;;;;;;;11.28;79.24;101233.13;5057497;28;20779;-60
2023/01/04 12:13:52;;;;;;;5.47;1.20;;;;;;;11.25;79.31;101241.38;5058394;28;20206;-62
2023/01/04 12:16:38;;;;;;;2.27;1.00;;;;;;;11.26;79.14;101240.38;5062081;28;21495;-62
2023/01/04 12:19:06;;;;;;;3.53;1.30;;;;;;;11.25;79.67;101238.72;5058747;28;20222;-63
2023/01/04 12:21:35;;;;;;;2.80;1.23;;;;;;;11.32;79.23;101234.56;5058109;28;20290;-63
2023/01/04 12:24:06;;;;;;;2.53;1.00;;;;;;;11.36;78.60;101235.94;5060350;28;20777;-62
2023/01/04 12:26:41;;;;;;;2.10;1.00;;;;;;;11.39;78.58;101237.50;5055332;28;20247;-61
2023/01/04 12:29:33;;;;;;;4.07;1.27;;;;;;;11.39;78.32;101233.03;5054112;28;20214;-64
2023/01/04 12:32:35;;;;;;;2.00;0.80;;;;;;;11.44;78.49;101225.50;5058895;28;20221;-63
2023/01/04 12:35:03;;;;;;;3.50;1.10;;;;;;;11.48;78.05;101218.94;5052700;28;20339;-64
2023/01/04 12:37:48;;;;;;;3.00;1.00;;;;;;;11.51;77.82;101200.09;5059946;28;20200;-63